Time;durP1;ratioP1;P1;durP2;ratioP2;P2;SDS_P1;SDS_P2;PMS_P1;PMS_P2;Temp;Humidity;BMP_temperature;BMP_pressure;BME280_temperature;BME280_humidity;BME280_pressure;Samples;Min_cycle;Max_cycle;Signal;HPM_P1;HPM_P2
2022/01/06 00:00:11;;;;;;;30.27;18.90;;;;;;;6.68;84.50;94068.31;5055990;28;20460;-89
2022/01/06 00:02:40;;;;;;;25.30;18.00;;;;;;;6.73;84.02;94066.16;5056011;28;20466;-90
2022/01/06 00:05:08;;;;;;;22.10;16.60;;;;;;;6.80;83.76;94068.09;5055503;28;20963;-90
2022/01/06 00:07:36;;;;;;;22.60;16.50;;;;;;;6.83;83.23;94072.25;5056013;28;20558;-89
2022/01/06 00:10:21;;;;;;;20.50;15.50;;;;;;;6.83;83.58;94062.63;5054909;28;20471;-90
2022/01/06 00:13:05;;;;;;;24.13;14.67;;;;;;;6.79;83.18;94068.25;5055223;28;20464;-90
2022/01/06 00:15:38;;;;;;;24.73;14.57;;;;;;;6.73;83.59;94060.94;5055609;28;20441;-90
2022/01/06 00:18:23;;;;;;;22.50;15.37;;;;;;;6.74;83.30;94057.38;5055384;28;20452;-90
2022/01/06 00:34:18;;;;;;;24.03;14.90;;;;;;;6.70;84.29;94051.59;5054001;28;20520;-86
2022/01/06 00:36:45;;;;;;;20.13;14.70;;;;;;;6.82;84.17;94055.78;5054689;28;20459;-87
2022/01/06 00:39:13;;;;;;;21.77;14.60;;;;;;;6.87;82.98;94068.41;5055446;28;20489;-86
2022/01/06 00:41:40;;;;;;;21.90;15.23;;;;;;;6.92;83.10;94055.81;5054575;28;20455;-87
2022/01/06 00:44:09;;;;;;;23.07;13.90;;;;;;;6.96;82.40;94059.03;5055077;28;20448;-87
2022/01/06 00:46:36;;;;;;;20.20;15.43;;;;;;;6.98;83.15;94067.53;5054784;28;20489;-87
2022/01/06 00:49:04;;;;;;;20.97;15.00;;;;;;;7.02;82.70;94067.16;5055908;28;20453;-87
2022/01/06 00:51:32;;;;;;;20.53;15.20;;;;;;;7.08;81.83;94065.81;5055556;28;20452;-87
2022/01/06 00:53:59;;;;;;;22.27;15.47;;;;;;;7.15;81.61;94064.31;5054676;28;20452;-87
2022/01/06 00:56:26;;;;;;;21.77;13.53;;;;;;;7.14;81.59;94066.09;5054473;28;20483;-87
2022/01/06 00:58:53;;;;;;;17.80;14.00;;;;;;;7.14;81.70;94070.50;5054650;28;20452;-87
2022/01/06 01:01:20;;;;;;;17.33;13.70;;;;;;;7.19;80.81;94059.66;5054978;28;20550;-87
2022/01/06 01:03:47;;;;;;;16.50;12.83;;;;;;;7.16;81.35;94084.22;5055329;28;20461;-87
2022/01/06 01:06:14;;;;;;;18.13;13.70;;;;;;;7.03;81.42;94058.38;5054903;28;20906;-86
2022/01/06 01:08:43;;;;;;;18.83;13.87;;;;;;;6.76;82.64;94060.69;5054574;28;20480;-87
2022/01/06 01:11:10;;;;;;;17.87;13.13;;;;;;;6.94;81.63;94084.38;5054924;28;20452;-87
2022/01/06 01:13:54;;;;;;;18.10;12.90;;;;;;;6.87;81.64;94076.25;5054282;28;20449;-87
2022/01/06 01:16:24;;;;;;;18.13;13.90;;;;;;;6.96;81.41;94090.31;5055004;28;20548;-87
2022/01/06 01:18:51;;;;;;;18.87;14.30;;;;;;;6.99;81.27;94084.84;5055086;28;20486;-87
2022/01/06 01:21:22;;;;;;;21.40;12.13;;;;;;;6.91;81.65;94071.59;5056171;28;20520;-87
2022/01/06 01:23:50;;;;;;;15.90;13.13;;;;;;;7.01;81.50;94090.75;5059654;28;20451;-87
2022/01/06 01:26:17;;;;;;;19.23;12.87;;;;;;;7.07;81.33;94067.59;5058672;28;20573;-87
2022/01/06 01:28:46;;;;;;;21.87;12.00;;;;;;;7.13;80.77;94089.72;5058514;28;20456;-86
2022/01/06 01:31:24;;;;;;;14.67;11.90;;;;;;;7.12;80.70;94080.22;5058735;28;20456;-87
2022/01/06 01:33:53;;;;;;;17.83;12.63;;;;;;;7.13;80.71;94076.66;5058326;28;21014;-86
2022/01/06 01:36:44;;;;;;;13.83;11.57;;;;;;;7.19;80.10;94080.53;5058581;28;20479;-87
2022/01/06 01:39:12;;;;;;;17.80;12.50;;;;;;;7.19;79.94;94070.94;5058448;28;20459;-87
2022/01/06 01:41:39;;;;;;;17.43;12.20;;;;;;;7.19;80.49;94067.50;5058509;28;21081;-86
2022/01/06 01:44:12;;;;;;;17.80;12.77;;;;;;;7.18;80.12;94071.06;5058066;28;20538;-87
2022/01/06 01:46:43;;;;;;;13.80;11.40;;;;;;;7.18;79.79;94076.28;5058661;28;21080;-86
2022/01/06 01:49:28;;;;;;;20.73;13.23;;;;;;;7.18;79.72;94077.09;5058454;28;20451;-87
2022/01/06 01:51:58;;;;;;;19.73;12.93;;;;;;;7.16;80.08;94063.38;5058638;28;20457;-87
2022/01/06 01:54:26;;;;;;;16.83;12.63;;;;;;;7.13;79.64;94064.44;5058570;28;20935;-86
2022/01/06 01:56:54;;;;;;;20.60;12.40;;;;;;;7.19;80.18;94070.94;5058013;28;20443;-87
2022/01/06 01:59:21;;;;;;;18.10;12.70;;;;;;;7.17;79.86;94065.00;5058277;28;20529;-87
2022/01/06 02:01:48;;;;;;;17.63;12.93;;;;;;;7.16;79.99;94055.53;5058082;28;20461;-87
2022/01/06 02:04:15;;;;;;;18.63;13.70;;;;;;;7.18;79.56;94052.78;5057889;28;21041;-88
2022/01/06 02:06:42;;;;;;;15.50;12.30;;;;;;;7.19;79.24;94057.88;5057953;28;20492;-87
2022/01/06 02:09:09;;;;;;;18.40;11.77;;;;;;;7.20;79.78;94049.09;5057677;28;21301;-87
2022/01/06 02:11:37;;;;;;;18.90;12.53;;;;;;;7.20;79.12;94062.13;5058207;28;20470;-89
2022/01/06 02:14:06;;;;;;;16.70;12.67;;;;;;;7.20;79.29;94062.13;5058166;28;20448;-89
2022/01/06 02:16:34;;;;;;;14.07;10.47;;;;;;;7.20;79.11;94058.72;5057710;28;20532;-88
2022/01/06 02:19:01;;;;;;;15.67;12.60;;;;;;;7.18;79.04;94051.00;5057527;28;20457;-88
2022/01/06 02:21:30;;;;;;;19.20;11.90;;;;;;;7.16;79.29;94055.53;5057583;28;20452;-88
2022/01/06 02:23:57;;;;;;;17.37;11.53;;;;;;;7.13;78.97;94051.41;5057706;28;20451;-88
2022/01/06 02:26:24;;;;;;;18.93;11.70;;;;;;;7.04;78.64;94053.97;5057202;28;20480;-88
2022/01/06 02:28:51;;;;;;;13.97;12.33;;;;;;;7.03;78.66;94068.81;5057475;28;20463;-88
2022/01/06 02:31:20;;;;;;;16.20;12.60;;;;;;;7.00;79.09;94060.41;5057292;28;20455;-88
2022/01/06 02:33:48;;;;;;;16.83;13.00;;;;;;;6.88;79.09;94049.22;5056856;28;20457;-88
2022/01/06 02:36:15;;;;;;;15.37;12.60;;;;;;;6.74;79.54;94073.84;5057753;28;20856;-88
2022/01/06 02:38:43;;;;;;;17.03;11.53;;;;;;;6.72;80.09;94075.75;5057512;28;20803;-88
2022/01/06 02:41:10;;;;;;;18.33;12.83;;;;;;;6.65;80.31;94058.97;5057156;28;20456;-88
2022/01/06 02:43:46;;;;;;;17.83;13.20;;;;;;;6.56;80.81;94080.56;5057365;28;20455;-88
2022/01/06 02:46:13;;;;;;;14.57;11.57;;;;;;;6.53;81.12;94080.81;5057146;28;20536;-89
2022/01/06 02:48:40;;;;;;;18.73;12.10;;;;;;;6.56;81.42;94090.97;5057315;28;20456;-88
2022/01/06 02:51:07;;;;;;;17.73;11.57;;;;;;;6.51;81.51;94082.72;5057278;28;20452;-88
2022/01/06 02:53:34;;;;;;;15.27;11.40;;;;;;;6.55;81.44;94093.72;5057188;28;20456;-88
2022/01/06 02:56:02;;;;;;;14.70;11.27;;;;;;;6.58;81.35;94089.06;5057323;28;20457;-88
2022/01/06 02:58:29;;;;;;;13.30;11.10;;;;;;;6.60;80.78;94087.16;5057532;28;20447;-88
2022/01/06 03:00:56;;;;;;;16.37;11.43;;;;;;;6.55;80.83;94080.69;5056913;28;20938;-88
2022/01/06 03:03:23;;;;;;;13.83;11.23;;;;;;;6.54;80.32;94077.25;5065626;28;20451;-88
2022/01/06 03:05:50;;;;;;;15.20;11.30;;;;;;;6.53;80.37;94096.44;5072945;28;20456;-88
2022/01/06 03:08:22;;;;;;;15.03;11.83;;;;;;;6.46;80.64;94080.50;5062470;28;20490;-88
2022/01/06 03:10:50;;;;;;;18.93;13.00;;;;;;;6.43;81.12;94075.53;5058139;28;20476;-88
2022/01/06 03:13:18;;;;;;;16.83;12.43;;;;;;;6.33;81.95;94094.63;5057597;28;20490;-88
2022/01/06 03:15:45;;;;;;;15.60;11.57;;;;;;;6.21;82.81;94053.00;5056628;28;20460;-88
2022/01/06 03:18:12;;;;;;;15.63;11.27;;;;;;;6.29;83.26;94096.66;5056441;28;20447;-87
2022/01/06 03:20:39;;;;;;;16.73;10.80;;;;;;;6.22;83.28;94100.72;5056417;28;20538;-88
2022/01/06 03:23:06;;;;;;;19.60;12.53;;;;;;;6.14;83.07;94053.63;5056434;28;20454;-88
2022/01/06 03:25:33;;;;;;;13.33;11.17;;;;;;;6.10;84.01;94092.13;5056094;28;20438;-88
2022/01/06 03:28:00;;;;;;;16.90;12.87;;;;;;;6.04;83.69;94082.16;5055709;28;20479;-88
2022/01/06 03:30:28;;;;;;;13.70;11.30;;;;;;;6.10;84.25;94081.72;5056080;28;20541;-88
2022/01/06 03:32:56;;;;;;;18.90;12.73;;;;;;;6.11;83.33;94080.75;5056202;28;20457;-88
2022/01/06 03:35:28;;;;;;;14.73;10.70;;;;;;;6.13;83.72;94081.47;5056261;28;20491;-88
2022/01/06 03:37:56;;;;;;;16.40;13.17;;;;;;;6.13;83.60;94084.06;5055690;28;21008;-88
2022/01/06 03:40:23;;;;;;;13.33;11.60;;;;;;;6.14;83.11;94058.84;5056131;28;20825;-88
2022/01/06 03:42:50;;;;;;;15.27;12.40;;;;;;;6.04;84.22;94084.78;5056069;28;20456;-87
2022/01/06 03:45:19;;;;;;;18.23;11.90;;;;;;;6.06;83.88;94087.25;5056020;28;20447;-88
2022/01/06 03:47:48;;;;;;;13.30;10.13;;;;;;;5.99;83.90;94083.50;5055421;28;21027;-88
2022/01/06 03:50:16;;;;;;;16.00;10.73;;;;;;;6.01;84.39;94084.19;5055347;28;20949;-88
2022/01/06 03:52:44;;;;;;;16.77;11.73;;;;;;;6.03;83.80;94093.53;5055804;28;20470;-88
2022/01/06 03:55:16;;;;;;;17.37;10.87;;;;;;;6.09;83.85;94098.28;5055771;28;20469;-88
2022/01/06 03:57:43;;;;;;;15.00;11.50;;;;;;;6.06;83.47;94088.09;5055895;28;20448;-88
2022/01/06 04:00:18;;;;;;;14.27;11.33;;;;;;;6.10;83.95;94086.91;5055851;28;20445;-88
2022/01/06 04:02:45;;;;;;;15.10;11.40;;;;;;;6.08;83.87;94098.41;5055731;28;20453;-88
2022/01/06 04:05:14;;;;;;;13.50;10.30;;;;;;;6.10;84.04;94099.94;5055652;28;20443;-88
2022/01/06 04:07:42;;;;;;;12.03;9.97;;;;;;;6.10;83.58;94081.72;5055443;28;20483;-88
2022/01/06 04:10:12;;;;;;;12.10;9.17;;;;;;;6.14;83.32;94097.91;5055599;28;20445;-88
2022/01/06 04:12:39;;;;;;;16.03;11.00;;;;;;;6.08;83.16;94086.22;5055463;28;20444;-88
2022/01/06 04:15:11;;;;;;;13.77;9.93;;;;;;;6.06;83.77;94098.50;5055222;28;20427;-88
2022/01/06 04:21:01;;;;;;;14.40;10.10;;;;;;;5.96;83.69;94081.13;5055191;28;20436;-88
2022/01/06 04:23:28;;;;;;;15.03;10.50;;;;;;;5.98;83.78;94116.53;5054811;28;20447;-88
2022/01/06 04:25:55;;;;;;;12.07;10.67;;;;;;;5.99;83.54;94093.91;5055085;28;20436;-88
2022/01/06 04:28:21;;;;;;;15.87;11.53;;;;;;;6.02;83.63;94102.31;5020593;28;20546;-87
2022/01/06 04:30:48;;;;;;;15.53;11.70;;;;;;;5.99;83.53;94105.16;5055108;28;20455;-87
2022/01/06 04:33:15;;;;;;;14.10;9.97;;;;;;;6.01;83.83;94095.44;5055501;28;20448;-88
2022/01/06 04:35:42;;;;;;;13.77;10.40;;;;;;;6.07;83.59;94102.78;5054902;28;20459;-88
2022/01/06 04:38:11;;;;;;;14.97;9.60;;;;;;;6.04;83.99;94126.44;5054944;28;20465;-88
2022/01/06 04:40:38;;;;;;;16.20;10.00;;;;;;;6.08;83.91;94106.22;5054954;28;20455;-88
2022/01/06 04:43:06;;;;;;;10.80;9.70;;;;;;;6.07;83.64;94117.56;5054758;28;20454;-88
2022/01/06 04:48:54;;;;;;;17.20;10.83;;;;;;;5.97;84.00;94114.88;5053404;28;20994;-88
2022/01/06 04:51:21;;;;;;;18.07;11.23;;;;;;;6.04;83.23;94136.84;5054511;28;20473;-88
2022/01/06 04:53:50;;;;;;;13.57;11.33;;;;;;;6.06;83.30;94121.94;5054667;28;20462;-88
2022/01/06 04:56:17;;;;;;;12.77;8.70;;;;;;;6.10;83.17;94135.56;5054224;28;20458;-88
2022/01/06 04:58:44;;;;;;;15.20;9.93;;;;;;;6.13;83.19;94151.78;5054711;28;20451;-88
2022/01/06 05:01:11;;;;;;;12.33;9.83;;;;;;;6.14;82.88;94145.63;5054846;28;20448;-88
2022/01/06 05:03:38;;;;;;;18.33;12.93;;;;;;;6.07;82.65;94133.19;5054935;28;20461;-87
2022/01/06 05:06:04;;;;;;;14.47;11.93;;;;;;;6.14;82.73;94152.59;5054957;28;20459;-88
2022/01/06 05:08:31;;;;;;;15.67;11.60;;;;;;;6.14;82.95;94143.00;5054560;28;20833;-88
2022/01/06 05:11:00;;;;;;;12.77;10.03;;;;;;;6.20;82.84;94150.34;5054481;28;20454;-87
2022/01/06 05:13:27;;;;;;;15.10;10.40;;;;;;;6.17;82.82;94140.16;5055053;28;20459;-88
2022/01/06 05:15:54;;;;;;;14.87;8.73;;;;;;;6.15;83.13;94136.84;5054582;28;20447;-88
2022/01/06 05:18:21;;;;;;;15.60;10.13;;;;;;;6.19;82.53;94138.25;5054201;28;20458;-88
2022/01/06 05:20:48;;;;;;;13.33;8.40;;;;;;;6.18;83.02;94149.63;5054426;28;20451;-88
2022/01/06 05:23:15;;;;;;;19.00;11.73;;;;;;;6.18;82.29;94147.03;5054348;28;20454;-88
2022/01/06 05:25:42;;;;;;;13.03;9.77;;;;;;;5.84;83.46;94137.59;5054341;28;20812;-88
2022/01/06 05:28:10;;;;;;;11.47;8.77;;;;;;;5.85;83.06;94145.28;5054322;28;20489;-86
2022/01/06 05:30:37;;;;;;;14.50;9.57;;;;;;;5.97;83.66;94151.31;5055047;28;20455;-88
2022/01/06 05:33:04;;;;;;;11.90;9.67;;;;;;;5.97;83.46;94150.50;5054056;28;20449;-86
2022/01/06 05:35:31;;;;;;;11.90;9.70;;;;;;;5.98;83.29;94144.34;5054311;28;20449;-87
2022/01/06 05:37:58;;;;;;;15.13;11.90;;;;;;;6.01;83.39;94142.31;5054678;28;20451;-86
2022/01/06 05:40:25;;;;;;;13.93;9.63;;;;;;;5.94;83.15;94172.41;5053768;28;20435;-85
2022/01/06 05:42:53;;;;;;;12.10;9.60;;;;;;;5.94;83.37;94158.53;5053532;28;20449;-86
2022/01/06 05:45:22;;;;;;;12.47;8.53;;;;;;;5.97;82.96;94155.69;5053816;28;20434;-88
2022/01/06 05:47:49;;;;;;;9.97;8.67;;;;;;;6.02;83.30;94169.19;5053854;28;20555;-87
2022/01/06 05:50:16;;;;;;;16.13;10.30;;;;;;;5.98;83.70;94155.56;5054423;28;20464;-85
2022/01/06 05:52:44;;;;;;;24.33;12.53;;;;;;;5.97;83.44;94140.06;5053739;28;20474;-85
2022/01/06 05:55:12;;;;;;;21.73;12.60;;;;;;;5.98;83.52;94159.97;5053666;28;20466;-93
2022/01/06 05:57:38;;;;;;;24.90;14.60;;;;;;;5.96;83.34;94151.44;5053979;28;20444;-86
2022/01/06 06:00:09;;;;;;;15.50;10.60;;;;;;;5.82;83.71;94139.50;5054541;28;20937;-89
2022/01/06 06:02:37;;;;;;;21.13;13.03;;;;;;;5.95;84.93;94149.78;5055344;28;20522;-89
2022/01/06 06:05:05;;;;;;;11.80;9.97;;;;;;;5.96;85.09;94149.66;5054643;28;20955;-89
2022/01/06 06:07:32;;;;;;;15.00;9.30;;;;;;;6.00;83.61;94151.06;5056626;28;20541;-89
2022/01/06 06:09:59;;;;;;;23.70;14.40;;;;;;;5.96;83.16;94138.41;5057555;28;20483;-86
2022/01/06 06:12:26;;;;;;;25.63;11.30;;;;;;;5.92;83.28;94153.47;5057580;28;21182;-86
2022/01/06 06:28:21;;;;;;;19.63;11.33;;;;;;;5.82;84.33;94160.31;5037543;28;20492;-92
2022/01/06 06:30:48;;;;;;;31.37;15.43;;;;;;;5.82;84.85;94165.53;5037874;28;20449;-89
2022/01/06 06:33:15;;;;;;;24.13;13.63;;;;;;;5.83;84.51;94164.56;5037772;28;20459;-89
2022/01/06 06:35:42;;;;;;;23.57;12.90;;;;;;;5.87;84.23;94164.22;5037487;28;20461;-85
2022/01/06 06:38:09;;;;;;;29.43;13.47;;;;;;;5.90;83.97;94168.38;5037367;28;20454;-89
2022/01/06 06:40:36;;;;;;;18.97;10.73;;;;;;;5.84;85.58;94164.44;5037476;28;20460;-89
2022/01/06 06:43:03;;;;;;;18.50;11.40;;;;;;;5.98;93.12;94158.19;5037720;28;20463;-87
2022/01/06 06:45:32;;;;;;;15.73;11.03;;;;;;;6.02;88.99;94164.81;5037599;28;20455;-93
2022/01/06 06:47:59;;;;;;;25.87;15.20;;;;;;;6.02;86.39;94175.22;5038115;28;20490;-91
2022/01/06 06:50:27;;;;;;;14.27;11.30;;;;;;;6.02;84.38;94174.38;5037997;28;20508;-94
2022/01/06 06:52:54;;;;;;;14.90;11.10;;;;;;;6.09;84.33;94176.41;5036808;28;20448;-89
2022/01/06 06:55:20;;;;;;;13.37;9.90;;;;;;;6.11;84.42;94186.72;5037436;28;20460;-90
2022/01/06 06:57:47;;;;;;;18.70;11.20;;;;;;;6.16;83.83;94182.78;5038655;28;20446;-91
2022/01/06 07:00:15;;;;;;;14.47;9.70;;;;;;;6.16;84.03;94201.03;5055037;28;20459;-88
2022/01/06 07:02:44;;;;;;;18.50;10.87;;;;;;;6.19;83.40;94184.31;5055712;28;20562;-87
2022/01/06 07:05:11;;;;;;;19.37;11.70;;;;;;;6.17;82.89;94192.25;5039316;28;20455;-89
2022/01/06 07:07:38;;;;;;;15.60;11.27;;;;;;;6.20;82.75;94196.41;5039515;28;20488;-92
2022/01/06 07:10:06;;;;;;;21.43;12.40;;;;;;;6.26;82.55;94197.69;5040780;28;21034;-92
2022/01/06 07:12:33;;;;;;;21.10;11.87;;;;;;;6.28;82.63;94195.78;5037522;28;20474;-92
2022/01/06 07:15:02;;;;;;;14.40;10.70;;;;;;;6.22;82.46;94182.28;5037171;28;20947;-91
2022/01/06 07:17:29;;;;;;;26.23;13.37;;;;;;;6.18;82.86;94191.31;5037430;28;20465;-91
2022/01/06 07:19:58;;;;;;;15.67;11.47;;;;;;;6.22;82.75;94191.88;5036405;28;20471;-88
2022/01/06 07:22:25;;;;;;;17.53;12.10;;;;;;;6.25;82.76;94211.66;5038075;28;20451;-93
2022/01/06 07:24:52;;;;;;;16.17;12.13;;;;;;;6.32;83.68;94210.22;5036472;28;20796;-88
2022/01/06 07:27:19;;;;;;;17.07;10.80;;;;;;;6.35;83.25;94189.94;5043476;28;20454;-88
2022/01/06 07:29:46;;;;;;;22.60;15.00;;;;;;;6.34;83.38;94197.91;5058612;28;20459;-90
2022/01/06 07:32:13;;;;;;;25.00;14.60;;;;;;;6.40;82.72;94211.28;5058691;28;20467;-91
2022/01/06 07:34:40;;;;;;;19.20;11.07;;;;;;;6.38;82.48;94217.56;5059577;28;20451;-93
2022/01/06 07:37:09;;;;;;;19.27;12.13;;;;;;;6.48;82.76;94213.28;5058499;28;20461;-93
2022/01/06 07:39:37;;;;;;;14.90;10.50;;;;;;;6.55;82.39;94206.63;5058391;28;20551;-88
2022/01/06 07:42:05;;;;;;;13.77;10.23;;;;;;;6.71;82.83;94207.06;5056381;28;20455;-93
2022/01/06 07:44:32;;;;;;;18.87;12.07;;;;;;;6.87;82.63;94218.84;5056652;28;20460;-96
2022/01/06 07:47:01;;;;;;;39.63;22.47;;;;;;;7.01;82.65;94205.50;5060979;28;20466;-95
2022/01/06 07:49:29;;;;;;;35.57;15.70;;;;;;;7.11;81.68;94209.00;5065172;28;20478;-96
2022/01/06 07:51:56;;;;;;;15.90;11.30;;;;;;;7.26;81.59;94220.81;5060530;28;20463;-93
2022/01/06 07:54:25;;;;;;;16.07;10.37;;;;;;;7.41;81.21;94227.34;5058661;28;20461;-93
2022/01/06 07:56:52;;;;;;;16.13;11.10;;;;;;;7.58;80.68;94225.13;5058672;28;20464;-92
2022/01/06 07:59:19;;;;;;;16.50;11.53;;;;;;;7.74;79.62;94223.69;5057755;28;20459;-95
2022/01/06 08:01:46;;;;;;;15.20;9.43;;;;;;;7.88;79.44;94233.00;5058100;28;20464;-91
2022/01/06 08:04:13;;;;;;;14.73;11.13;;;;;;;7.98;78.61;94233.88;5058436;28;20528;-91
2022/01/06 08:06:40;;;;;;;20.80;11.27;;;;;;;8.06;78.96;94228.81;5058394;28;20500;-90
2022/01/06 08:09:07;;;;;;;20.90;14.23;;;;;;;8.10;77.63;94220.72;5058424;28;20489;-88
2022/01/06 08:11:36;;;;;;;19.90;13.00;;;;;;;8.22;77.18;94240.56;5057734;28;20460;-92
2022/01/06 08:14:03;;;;;;;15.83;10.20;;;;;;;8.28;77.07;94246.09;5058543;28;20442;-94
2022/01/06 08:16:30;;;;;;;25.83;13.93;;;;;;;8.31;76.03;94237.16;5062435;28;20477;-93
2022/01/06 08:18:57;;;;;;;12.90;10.00;;;;;;;8.13;75.83;94230.91;5060423;28;20484;-91
2022/01/06 08:21:25;;;;;;;16.30;12.13;;;;;;;8.21;79.73;94229.28;5058822;28;20441;-91
2022/01/06 08:23:52;;;;;;;21.03;12.37;;;;;;;8.30;79.63;94238.13;5057902;28;21000;-91
2022/01/06 08:26:19;;;;;;;18.30;11.20;;;;;;;8.43;78.28;94238.75;5058275;28;20546;-92
2022/01/06 08:28:48;;;;;;;16.87;11.03;;;;;;;8.42;77.79;94224.03;5058429;28;20477;-91
2022/01/06 08:31:16;;;;;;;22.53;12.10;;;;;;;8.57;78.03;94240.97;5057437;28;20544;-90
2022/01/06 08:33:43;;;;;;;24.77;13.10;;;;;;;8.64;78.40;94225.56;5057553;28;20452;-89
2022/01/06 08:36:10;;;;;;;14.20;10.13;;;;;;;8.68;78.46;94216.53;5055290;28;20457;-90
2022/01/06 08:38:38;;;;;;;20.27;12.60;;;;;;;8.79;78.66;94229.47;5055831;28;20456;-90
2022/01/06 08:41:05;;;;;;;25.60;12.67;;;;;;;8.89;78.70;94203.31;5055551;28;20471;-92
2022/01/06 08:47:13;;;;;;;20.23;13.97;;;;;;;9.15;77.62;94240.22;5057054;28;20402;-92
2022/01/06 08:49:42;;;;;;;22.73;15.60;;;;;;;9.22;78.07;94239.53;5056390;28;20477;-93
2022/01/06 08:52:10;;;;;;;19.87;13.03;;;;;;;9.30;77.27;94231.84;5060790;28;20513;-90
2022/01/06 08:54:38;;;;;;;21.43;12.73;;;;;;;9.42;77.69;94236.94;5056564;28;20463;-92
2022/01/06 08:57:05;;;;;;;21.60;13.37;;;;;;;9.44;77.86;94224.50;5066287;28;20443;-93
2022/01/06 08:59:33;;;;;;;17.20;11.80;;;;;;;9.46;77.10;94219.97;5058078;28;20453;-90
2022/01/06 09:02:00;;;;;;;21.83;14.43;;;;;;;9.48;76.94;94229.31;5058763;28;20464;-89
2022/01/06 09:04:28;;;;;;;24.23;13.30;;;;;;;9.54;76.62;94239.28;5057975;28;20541;-92
2022/01/06 09:06:55;;;;;;;26.20;17.03;;;;;;;9.62;77.31;94235.94;5055994;28;20468;-91
2022/01/06 09:09:23;;;;;;;24.17;13.67;;;;;;;9.57;75.79;94211.97;5055498;28;20484;-89
2022/01/06 09:11:50;;;;;;;30.77;15.30;;;;;;;9.64;75.87;94218.28;5055925;28;20445;-90
2022/01/06 09:14:17;;;;;;;21.33;14.20;;;;;;;9.75;76.91;94236.47;5055590;28;20955;-90
2022/01/06 09:16:44;;;;;;;30.57;16.47;;;;;;;9.87;76.84;94245.00;5054967;28;20466;-90
2022/01/06 09:19:12;;;;;;;24.50;15.13;;;;;;;9.96;75.99;94230.22;5055582;28;20456;-91
2022/01/06 09:28:25;;;;;;;22.83;14.93;;;;;;;10.24;76.62;94213.59;5053363;28;20569;-88
2022/01/06 09:30:52;;;;;;;98.00;57.43;;;;;;;10.38;75.39;94197.34;5054606;28;20447;-91
2022/01/06 09:33:20;;;;;;;33.80;18.17;;;;;;;10.49;74.58;94196.34;5055081;28;20922;-89
2022/01/06 09:35:47;;;;;;;15.57;11.53;;;;;;;10.66;73.29;94200.78;5055156;28;20445;-90
2022/01/06 09:38:14;;;;;;;23.87;15.87;;;;;;;10.85;73.38;94194.59;5055094;28;20466;-90
2022/01/06 09:40:43;;;;;;;27.97;14.83;;;;;;;11.01;72.47;94186.91;5054284;28;20453;-90
2022/01/06 09:43:12;;;;;;;23.83;15.73;;;;;;;11.13;71.47;94183.06;5057620;28;20449;-90
2022/01/06 09:45:41;;;;;;;29.70;17.43;;;;;;;11.29;70.74;94177.13;5058635;28;20449;-89
2022/01/06 09:48:10;;;;;;;17.30;11.87;;;;;;;11.33;71.18;94175.03;5058168;28;20490;-89
2022/01/06 09:50:42;;;;;;;16.83;11.83;;;;;;;11.42;70.56;94161.78;5058452;28;20451;-90
2022/01/06 09:53:10;;;;;;;21.80;13.50;;;;;;;11.57;70.77;94169.97;5058143;28;20457;-90
2022/01/06 09:55:37;;;;;;;22.70;12.70;;;;;;;11.76;70.93;94167.09;5008026;28;20454;-89
2022/01/06 09:58:04;;;;;;;21.07;13.40;;;;;;;11.93;70.55;94169.88;5057935;28;20458;-90
2022/01/06 10:00:33;;;;;;;24.33;13.43;;;;;;;12.03;70.23;94167.94;5058070;28;20451;-90
2022/01/06 10:03:04;;;;;;;18.47;11.80;;;;;;;12.03;70.87;94183.72;5058057;28;20446;-89
2022/01/06 10:05:40;;;;;;;26.50;12.80;;;;;;;12.11;70.03;94191.66;5058087;28;20516;-87
2022/01/06 10:08:08;;;;;;;18.23;12.37;;;;;;;12.17;69.16;94185.78;5057906;28;20490;-88
2022/01/06 10:10:35;;;;;;;30.10;14.93;;;;;;;12.22;67.60;94172.16;5058266;28;20537;-88
2022/01/06 10:13:06;;;;;;;25.60;13.33;;;;;;;12.32;67.93;94181.56;5057714;28;20482;-88
2022/01/06 10:15:36;;;;;;;27.70;12.20;;;;;;;12.43;67.98;94179.63;5057218;28;20446;-88
2022/01/06 10:18:13;;;;;;;19.50;11.70;;;;;;;12.47;68.10;94171.28;5057564;28;20453;-88
2022/01/06 10:20:40;;;;;;;21.23;12.47;;;;;;;12.50;67.67;94176.22;5057618;28;20536;-88
2022/01/06 10:23:13;;;;;;;25.67;15.03;;;;;;;12.60;67.16;94182.16;5057749;28;20451;-88
2022/01/06 10:39:09;;;;;;;18.80;11.50;;;;;;;13.18;64.50;94167.34;5056806;28;20401;-87
2022/01/06 10:41:37;;;;;;;20.43;12.50;;;;;;;13.29;63.82;94169.63;5056386;28;20464;-87
2022/01/06 10:44:08;;;;;;;24.13;14.73;;;;;;;13.40;64.35;94177.25;5055179;28;20462;-89
2022/01/06 10:46:38;;;;;;;18.33;12.57;;;;;;;13.46;63.71;94168.66;5055347;28;20495;-89
2022/01/06 10:49:07;;;;;;;22.30;11.37;;;;;;;13.53;63.05;94167.00;5056187;28;20493;-89
2022/01/06 10:51:36;;;;;;;17.93;10.77;;;;;;;13.53;62.76;94163.56;5056796;28;20825;-88
2022/01/06 10:54:05;;;;;;;18.63;10.00;;;;;;;13.54;62.50;94159.94;5055775;28;20441;-87
2022/01/06 10:56:33;;;;;;;19.30;9.20;;;;;;;13.71;60.03;94160.75;5056601;28;20455;-89
2022/01/06 10:59:00;;;;;;;7.40;5.20;;;;;;;13.90;56.54;94149.84;5056863;28;20441;-89
2022/01/06 11:01:32;;;;;;;11.87;6.10;;;;;;;14.06;55.46;94155.06;5056902;28;20435;-89
2022/01/06 11:03:59;;;;;;;9.77;5.57;;;;;;;14.27;53.93;94146.59;5056541;28;20927;-90
2022/01/06 11:10:20;;;;;;;12.83;7.00;;;;;;;14.68;54.09;94144.63;5036956;28;20541;-88
2022/01/06 11:12:50;;;;;;;4.70;4.23;;;;;;;14.82;50.97;94133.31;5065321;28;20455;-89
2022/01/06 11:15:17;;;;;;;8.33;4.17;;;;;;;15.13;49.75;94129.81;5073368;28;20435;-88
2022/01/06 11:17:47;;;;;;;5.27;3.93;;;;;;;15.23;48.64;94119.81;5066586;28;20444;-90
2022/01/06 11:20:16;;;;;;;6.47;3.50;;;;;;;15.35;49.44;94120.25;5057069;28;20453;-89
2022/01/06 11:22:49;;;;;;;14.70;9.07;;;;;;;15.47;49.34;94119.63;5057126;28;20444;-90
2022/01/06 11:25:16;;;;;;;8.93;3.97;;;;;;;15.58;47.48;94115.75;5007076;28;20455;-89
2022/01/06 11:27:43;;;;;;;7.27;5.20;;;;;;;15.53;46.19;94110.16;5002333;28;20451;-89
2022/01/06 11:30:14;;;;;;;12.97;5.03;;;;;;;15.66;46.46;94114.88;5055963;28;20469;-89
2022/01/06 11:32:42;;;;;;;12.30;7.10;;;;;;;15.76;46.89;94107.50;5056012;28;20486;-88
2022/01/06 11:35:11;;;;;;;8.57;4.20;;;;;;;15.80;46.96;94104.31;5056019;28;20432;-90
2022/01/06 11:41:08;;;;;;;5.10;3.70;;;;;;;15.89;46.53;94106.84;5055555;28;20427;-88
2022/01/06 11:43:36;;;;;;;9.07;4.60;;;;;;;15.95;46.87;94106.97;5056638;28;20449;-88
2022/01/06 11:46:05;;;;;;;7.47;3.33;;;;;;;15.99;46.50;94100.31;5055960;28;20838;-89
2022/01/06 11:48:32;;;;;;;8.67;3.80;;;;;;;16.00;46.59;94115.19;5021540;28;20452;-88
2022/01/06 11:54:21;;;;;;;13.70;3.93;;;;;;;16.10;46.40;94118.38;5061198;28;20425;-85
2022/01/06 11:56:49;;;;;;;8.10;3.60;;;;;;;16.18;47.12;94106.84;5011666;28;20453;-85
2022/01/06 11:59:17;;;;;;;4.00;2.97;;;;;;;16.19;45.83;94112.97;5056695;28;20445;-88
2022/01/06 12:01:51;;;;;;;3.90;3.20;;;;;;;16.17;45.34;94109.69;5055716;28;20453;-88
2022/01/06 12:04:19;;;;;;;6.87;3.50;;;;;;;16.20;45.42;94101.41;5055282;28;20448;-87
2022/01/06 12:09:56;;;;;;;15.83;4.70;;;;;;;16.32;45.65;94107.88;5013325;28;20567;-87
2022/01/06 12:12:33;;;;;;;7.27;3.83;;;;;;;16.27;43.05;94113.72;5013357;28;20477;-87
2022/01/06 12:15:12;;;;;;;11.07;4.20;;;;;;;16.27;44.45;94121.66;5013424;28;20502;-86
2022/01/06 12:17:46;;;;;;;8.30;3.57;;;;;;;16.33;44.26;94104.22;5013623;28;20792;-87
2022/01/06 12:20:24;;;;;;;5.10;2.60;;;;;;;16.38;43.47;94104.47;5013473;28;20440;-88
2022/01/06 12:23:06;;;;;;;4.87;2.90;;;;;;;16.33;44.43;94109.50;5013403;28;20458;-87
2022/01/06 12:25:33;;;;;;;6.83;4.40;;;;;;;16.28;42.38;94101.31;4996735;28;20893;-86
2022/01/06 12:28:00;;;;;;;10.30;4.13;;;;;;;16.31;43.52;94106.22;5013074;28;20451;-85
2022/01/06 12:30:28;;;;;;;4.10;3.47;;;;;;;16.28;43.97;94112.72;5013070;28;20938;-87
2022/01/06 12:32:59;;;;;;;7.20;4.03;;;;;;;16.30;43.00;94104.59;5013105;28;20528;-86
2022/01/06 12:35:44;;;;;;;5.50;3.30;;;;;;;16.29;43.14;94108.25;5012678;28;20451;-86
2022/01/06 12:38:11;;;;;;;9.13;3.90;;;;;;;16.27;42.12;94108.44;5013092;28;20441;-85
2022/01/06 12:40:40;;;;;;;10.13;4.27;;;;;;;16.29;43.14;94102.94;5013113;28;20456;-91
2022/01/06 12:43:18;;;;;;;8.50;3.13;;;;;;;16.38;43.53;94112.41;5013438;28;20441;-87